Time;durP1;ratioP1;P1;durP2;ratioP2;P2;SDS_P1;SDS_P2;PMS_P1;PMS_P2;Temp;Humidity;BMP_temperature;BMP_pressure;BME280_temperature;BME280_humidity;BME280_pressure;Samples;Min_cycle;Max_cycle;Signal;HPM_P1;HPM_P2
2021/10/18 00:02:22;;;;;;;7.85;6.95;;;10.20;99.90;;;;;;5080222;28;20208;-47
2021/10/18 00:04:49;;;;;;;8.52;7.60;;;10.20;99.90;;;;;;5080066;28;20235;-45
2021/10/18 00:07:16;;;;;;;9.20;8.30;;;10.10;99.90;;;;;;5079679;28;20254;-46
2021/10/18 00:09:44;;;;;;;11.45;8.23;;;10.10;99.90;;;;;;5079883;28;20200;-43
2021/10/18 00:12:11;;;;;;;15.77;9.30;;;10.10;99.90;;;;;;5079921;28;20542;-43
2021/10/18 00:14:38;;;;;;;9.65;8.23;;;10.00;99.90;;;;;;5079811;28;20219;-46
2021/10/18 00:17:06;;;;;;;12.70;9.30;;;10.00;99.90;;;;;;5080369;28;20643;-45
2021/10/18 00:19:33;;;;;;;11.77;8.23;;;10.00;99.90;;;;;;5079371;28;20195;-45
2021/10/18 00:22:00;;;;;;;12.32;9.52;;;10.00;99.90;;;;;;5079734;28;20205;-44
2021/10/18 00:24:27;;;;;;;10.65;8.63;;;10.00;99.90;;;;;;5079895;28;20556;-43
2021/10/18 00:26:54;;;;;;;10.90;7.70;;;10.10;99.90;;;;;;5079859;28;20552;-44
2021/10/18 00:29:22;;;;;;;15.60;9.63;;;10.00;99.90;;;;;;5079081;28;20208;-41
2021/10/18 00:31:49;;;;;;;9.35;8.10;;;9.90;99.90;;;;;;5079781;28;20251;-44
2021/10/18 00:34:16;;;;;;;12.40;8.63;;;9.80;99.90;;;;;;5079655;28;20450;-44
2021/10/18 00:36:43;;;;;;;11.57;8.02;;;9.80;99.90;;;;;;5074400;28;20218;-46
2021/10/18 00:39:10;;;;;;;10.80;8.23;;;9.80;99.90;;;;;;5078480;28;20226;-47
2021/10/18 00:41:38;;;;;;;15.80;8.93;;;9.90;99.90;;;;;;5079044;28;20227;-45
2021/10/18 00:44:05;;;;;;;13.02;9.60;;;9.80;99.90;;;;;;5080125;28;20242;-50
2021/10/18 00:46:33;;;;;;;8.20;6.93;;;9.80;99.90;;;;;;5079204;28;20258;-48
2021/10/18 00:49:00;;;;;;;15.93;10.20;;;9.70;99.90;;;;;;5081139;28;20198;-48
2021/10/18 00:51:28;;;;;;;13.48;10.30;;;9.70;99.90;;;;;;5082470;28;20235;-45
2021/10/18 00:53:57;;;;;;;12.15;8.85;;;9.70;99.90;;;;;;5073890;28;20282;-44
2021/10/18 00:56:24;;;;;;;12.35;9.40;;;9.70;99.90;;;;;;5088475;28;20254;-48
2021/10/18 00:58:53;;;;;;;12.70;11.40;;;9.70;99.90;;;;;;5080182;28;20195;-43
2021/10/18 01:01:21;;;;;;;11.13;9.52;;;10.00;99.90;;;;;;5071592;28;20191;-48
2021/10/18 01:03:48;;;;;;;16.58;10.52;;;10.10;99.90;;;;;;5079551;28;20215;-45
2021/10/18 01:06:16;;;;;;;13.32;9.43;;;10.20;99.90;;;;;;5079899;28;20234;-46
2021/10/18 01:08:43;;;;;;;17.40;10.77;;;10.30;99.90;;;;;;5082776;28;20207;-44
2021/10/18 01:11:10;;;;;;;13.52;10.20;;;10.20;99.90;;;;;;5083130;28;20203;-47
2021/10/18 01:13:37;;;;;;;14.73;10.82;;;10.20;99.90;;;;;;5082846;28;20395;-46
2021/10/18 01:16:07;;;;;;;13.93;10.60;;;10.10;99.90;;;;;;5082694;28;22040;-44
2021/10/18 01:18:35;;;;;;;11.25;10.10;;;10.10;99.90;;;;;;5082875;28;20198;-43
2021/10/18 01:21:03;;;;;;;15.95;10.60;;;10.20;99.90;;;;;;5082802;28;20196;-48
2021/10/18 01:23:30;;;;;;;14.68;10.55;;;10.10;99.90;;;;;;5083509;28;20451;-46
2021/10/18 01:25:57;;;;;;;11.10;8.10;;;10.00;99.90;;;;;;5082983;28;20225;-51
2021/10/18 01:28:24;;;;;;;12.80;9.50;;;9.90;99.90;;;;;;5082919;28;20244;-46
2021/10/18 01:30:51;;;;;;;12.80;10.48;;;9.80;99.90;;;;;;5078287;28;20205;-48
2021/10/18 01:33:18;;;;;;;17.23;9.95;;;9.70;99.90;;;;;;5081341;28;20546;-46
2021/10/18 01:35:46;;;;;;;18.85;11.23;;;9.70;99.90;;;;;;5082970;28;20559;-44
2021/10/18 01:38:14;;;;;;;11.48;7.97;;;9.80;99.90;;;;;;5082678;28;20292;-49
2021/10/18 01:40:41;;;;;;;16.67;10.80;;;9.90;99.90;;;;;;5082196;28;20223;-47
2021/10/18 01:43:09;;;;;;;20.50;11.93;;;9.80;99.90;;;;;;5082327;28;20200;-47
2021/10/18 01:45:36;;;;;;;17.88;10.40;;;9.70;99.90;;;;;;5082438;28;20257;-49
2021/10/18 01:48:04;;;;;;;20.02;12.23;;;9.70;99.90;;;;;;5082587;28;20207;-44
2021/10/18 01:50:31;;;;;;;13.52;11.23;;;9.70;99.90;;;;;;5082571;28;20264;-46
2021/10/18 01:52:59;;;;;;;16.00;11.15;;;9.70;99.90;;;;;;5079937;28;20545;-46
2021/10/18 01:55:26;;;;;;;15.40;10.25;;;9.50;99.90;;;;;;5082678;28;20217;-47
2021/10/18 01:57:55;;;;;;;13.23;10.40;;;9.50;99.90;;;;;;5082037;28;20200;-50
2021/10/18 02:00:22;;;;;;;14.60;10.30;;;9.60;99.90;;;;;;5082224;28;20203;-47
2021/10/18 02:02:49;;;;;;;14.73;9.55;;;9.60;99.90;;;;;;5082769;28;20200;-48
2021/10/18 02:07:46;;;;;;;15.65;10.27;;;9.50;99.90;;;;;;5018054;28;20299;-54
2021/10/18 02:10:14;;;;;;;16.08;10.30;;;9.40;99.90;;;;;;5023621;28;20202;-54
2021/10/18 02:12:41;;;;;;;13.98;10.60;;;9.40;99.90;;;;;;5020389;28;20504;-54
2021/10/18 02:15:10;;;;;;;15.93;10.98;;;9.40;99.90;;;;;;5030229;28;20406;-55
2021/10/18 02:17:38;;;;;;;17.10;12.20;;;9.50;99.90;;;;;;5026366;28;20219;-53
2021/10/18 02:20:07;;;;;;;13.10;10.50;;;9.50;99.90;;;;;;5005072;28;20217;-54
2021/10/18 02:22:35;;;;;;;14.45;10.63;;;9.40;99.90;;;;;;5021034;28;20401;-57
2021/10/18 02:25:04;;;;;;;17.45;11.00;;;9.40;99.90;;;;;;5022321;28;20278;-55
2021/10/18 02:27:31;;;;;;;16.48;11.32;;;9.30;99.90;;;;;;5022147;28;20260;-55
2021/10/18 02:29:58;;;;;;;14.85;10.35;;;9.30;99.90;;;;;;5022441;28;20201;-55
2021/10/18 02:32:25;;;;;;;11.55;10.02;;;9.30;99.90;;;;;;5021990;28;20225;-56
2021/10/18 02:34:52;;;;;;;15.25;11.18;;;9.40;99.90;;;;;;5022980;28;20252;-53
2021/10/18 02:37:20;;;;;;;12.90;11.05;;;9.40;99.90;;;;;;5021474;28;20222;-54
2021/10/18 02:39:47;;;;;;;13.95;10.90;;;9.20;99.90;;;;;;5020462;28;20224;-55
2021/10/18 02:42:15;;;;;;;17.48;10.25;;;9.20;99.90;;;;;;5022140;28;20265;-56
2021/10/18 02:44:42;;;;;;;13.48;10.68;;;9.20;99.90;;;;;;5024423;28;20244;-55
2021/10/18 02:47:10;;;;;;;16.15;10.55;;;9.10;99.90;;;;;;5025995;28;20217;-57
2021/10/18 02:49:37;;;;;;;16.50;11.35;;;9.20;99.90;;;;;;5022756;28;20252;-53
2021/10/18 02:52:05;;;;;;;13.70;10.30;;;9.10;99.90;;;;;;5023867;28;20197;-56
2021/10/18 02:54:32;;;;;;;17.80;11.02;;;9.10;99.90;;;;;;5021877;28;20212;-54
2021/10/18 02:56:59;;;;;;;13.43;9.48;;;9.20;99.90;;;;;;5019684;28;20466;-54
2021/10/18 02:59:26;;;;;;;15.05;11.00;;;9.30;99.90;;;;;;5021972;28;20196;-54
2021/10/18 03:01:53;;;;;;;13.23;10.32;;;9.30;99.90;;;;;;5026144;28;20205;-53
2021/10/18 03:04:21;;;;;;;14.68;11.70;;;9.30;99.90;;;;;;5028939;28;20213;-54
2021/10/18 03:06:48;;;;;;;14.70;11.02;;;9.30;99.90;;;;;;5023800;28;20286;-53
2021/10/18 03:09:15;;;;;;;15.65;11.30;;;9.30;99.90;;;;;;5020677;28;20206;-53
2021/10/18 03:11:42;;;;;;;16.10;12.30;;;9.30;99.90;;;;;;5020934;28;20425;-51
2021/10/18 03:14:10;;;;;;;16.75;12.10;;;9.30;99.90;;;;;;5026335;28;20221;-53
2021/10/18 03:16:37;;;;;;;18.63;12.80;;;9.30;99.90;;;;;;5029308;28;20263;-55
2021/10/18 03:19:04;;;;;;;17.90;13.50;;;9.30;99.90;;;;;;5019146;28;20244;-52
2021/10/18 03:21:31;;;;;;;15.82;13.57;;;9.30;99.90;;;;;;5021355;28;20251;-56
2021/10/18 03:23:59;;;;;;;23.00;11.85;;;9.30;99.90;;;;;;5019340;28;20205;-53
2021/10/18 03:26:26;;;;;;;22.08;13.60;;;9.20;99.90;;;;;;5020821;28;20376;-55
2021/10/18 03:28:53;;;;;;;15.18;12.18;;;9.30;99.90;;;;;;5020761;28;20200;-53
2021/10/18 03:31:20;;;;;;;15.52;13.88;;;9.30;99.90;;;;;;5011983;28;20236;-54
2021/10/18 03:33:49;;;;;;;12.90;10.63;;;9.30;99.90;;;;;;5021281;28;20255;-56
2021/10/18 03:36:16;;;;;;;20.05;12.50;;;9.30;99.90;;;;;;5028395;28;20271;-54
2021/10/18 03:38:44;;;;;;;18.45;12.90;;;9.30;99.90;;;;;;5018470;28;20197;-56
2021/10/18 03:41:11;;;;;;;16.13;12.10;;;9.30;99.90;;;;;;5023134;28;20423;-56
2021/10/18 03:43:39;;;;;;;16.38;12.52;;;9.30;99.90;;;;;;5020304;28;20202;-53
2021/10/18 03:46:06;;;;;;;18.23;12.80;;;9.30;99.90;;;;;;5020853;28;20221;-54
2021/10/18 03:48:33;;;;;;;20.55;14.30;;;9.30;99.90;;;;;;5020561;28;20209;-53
2021/10/18 03:51:00;;;;;;;19.85;13.60;;;9.30;99.90;;;;;;5024447;28;20200;-55
2021/10/18 03:53:28;;;;;;;18.35;12.20;;;9.30;99.90;;;;;;5019552;28;20221;-54
2021/10/18 03:55:55;;;;;;;16.20;12.68;;;9.30;99.90;;;;;;5017697;28;20249;-52
2021/10/18 03:58:22;;;;;;;20.20;12.60;;;9.40;99.90;;;;;;5033172;28;20198;-56
2021/10/18 04:00:49;;;;;;;15.95;11.75;;;9.50;99.90;;;;;;5026629;28;20240;-53
2021/10/18 04:03:17;;;;;;;20.23;12.88;;;9.40;99.90;;;;;;5019996;28;20248;-54
2021/10/18 04:05:44;;;;;;;17.92;13.30;;;9.50;99.90;;;;;;5020451;28;20252;-55
2021/10/18 04:08:12;;;;;;;19.17;13.98;;;9.40;99.90;;;;;;5019888;28;20404;-53
2021/10/18 04:10:39;;;;;;;15.95;12.55;;;9.30;99.90;;;;;;5020479;28;20201;-56
2021/10/18 04:13:06;;;;;;;18.65;14.40;;;9.40;99.90;;;;;;5020387;28;20503;-53
2021/10/18 04:15:33;;;;;;;21.08;15.80;;;9.40;99.90;;;;;;5020057;28;20232;-58
2021/10/18 04:18:01;;;;;;;19.52;14.25;;;9.40;99.90;;;;;;5017823;28;20228;-55
2021/10/18 04:20:33;;;;;;;16.80;13.30;;;9.40;99.90;;;;;;5019948;28;20206;-51
2021/10/18 04:23:00;;;;;;;18.25;13.20;;;9.30;99.90;;;;;;5020092;28;20454;-54
2021/10/18 04:25:28;;;;;;;17.05;12.63;;;9.40;99.90;;;;;;5013087;28;20205;-53
2021/10/18 04:27:55;;;;;;;16.52;14.05;;;9.40;99.90;;;;;;5002039;28;20382;-52
2021/10/18 04:30:22;;;;;;;17.13;12.40;;;9.50;99.90;;;;;;5019831;28;20209;-52
2021/10/18 04:32:50;;;;;;;16.75;12.75;;;9.50;99.90;;;;;;5019986;28;20420;-54
2021/10/18 04:35:17;;;;;;;19.83;14.50;;;9.40;99.90;;;;;;5019715;28;20201;-58
2021/10/18 04:37:44;;;;;;;21.88;13.90;;;9.40;99.90;;;;;;5020022;28;20209;-54
2021/10/18 04:40:12;;;;;;;15.55;13.43;;;9.40;99.90;;;;;;5023282;28;20358;-58
2021/10/18 04:42:39;;;;;;;20.90;13.00;;;9.30;99.90;;;;;;5019611;28;20205;-56
2021/10/18 04:45:07;;;;;;;20.70;12.50;;;9.30;99.90;;;;;;5019155;28;20197;-55
2021/10/18 04:47:39;;;;;;;18.13;14.68;;;9.20;99.90;;;;;;5014295;28;20409;-56
2021/10/18 04:50:07;;;;;;;15.90;14.07;;;9.30;99.90;;;;;;5023212;28;20242;-55
2021/10/18 04:52:34;;;;;;;20.52;13.60;;;9.40;99.90;;;;;;5019825;28;20204;-54
2021/10/18 04:55:02;;;;;;;23.50;15.30;;;9.50;99.90;;;;;;5017803;28;20341;-55
2021/10/18 04:57:29;;;;;;;21.73;14.35;;;9.50;99.90;;;;;;5022616;28;20221;-55
2021/10/18 04:59:57;;;;;;;21.35;13.23;;;9.50;99.90;;;;;;5019110;28;20473;-55
2021/10/18 05:02:24;;;;;;;18.02;13.38;;;9.50;99.90;;;;;;5019410;28;20201;-54
2021/10/18 05:04:51;;;;;;;13.27;11.85;;;9.50;99.90;;;;;;5020416;28;20210;-56
2021/10/18 05:07:18;;;;;;;17.70;13.20;;;9.50;99.90;;;;;;5019337;28;20237;-56
2021/10/18 05:09:46;;;;;;;21.13;15.25;;;9.50;99.90;;;;;;5018967;28;20215;-57
2021/10/18 05:12:14;;;;;;;15.25;12.23;;;9.50;99.90;;;;;;4984749;28;20250;-58
2021/10/18 05:14:41;;;;;;;19.02;12.45;;;9.50;99.90;;;;;;4974640;28;20444;-56
2021/10/18 05:17:08;;;;;;;15.40;12.82;;;9.60;99.90;;;;;;4978154;28;20549;-53
2021/10/18 05:19:35;;;;;;;20.70;14.65;;;9.70;99.90;;;;;;4977648;28;20412;-55
2021/10/18 05:22:02;;;;;;;21.23;14.30;;;9.70;99.90;;;;;;4979921;28;20245;-54
2021/10/18 05:24:29;;;;;;;16.95;13.65;;;9.70;99.90;;;;;;4986861;28;20582;-54
2021/10/18 05:26:56;;;;;;;19.92;13.15;;;9.60;99.90;;;;;;4979149;28;20222;-49
2021/10/18 05:29:25;;;;;;;18.40;13.52;;;9.50;99.90;;;;;;4978792;28;20373;-54
2021/10/18 05:31:53;;;;;;;20.30;13.43;;;9.60;99.90;;;;;;4979343;28;20526;-54
2021/10/18 05:34:20;;;;;;;15.93;14.02;;;9.60;99.90;;;;;;4976547;28;20235;-54
2021/10/18 05:36:47;;;;;;;20.92;14.85;;;9.60;99.90;;;;;;4961743;28;20247;-54
2021/10/18 05:39:14;;;;;;;18.90;14.10;;;9.50;99.90;;;;;;4971952;28;20211;-56
2021/10/18 05:41:41;;;;;;;23.25;15.63;;;9.60;99.90;;;;;;4975353;28;20199;-54
2021/10/18 05:44:08;;;;;;;22.90;14.55;;;9.60;99.90;;;;;;4980126;28;20204;-57
2021/10/18 05:46:36;;;;;;;23.20;14.05;;;9.60;99.90;;;;;;4979500;28;20458;-56
2021/10/18 05:49:03;;;;;;;19.58;14.40;;;9.70;99.90;;;;;;4979961;28;20258;-58
2021/10/18 05:51:31;;;;;;;17.60;15.73;;;9.70;99.90;;;;;;4980379;28;20215;-54
2021/10/18 05:53:59;;;;;;;20.20;15.30;;;9.80;99.90;;;;;;4983327;28;20228;-55
2021/10/18 05:56:26;;;;;;;19.75;14.93;;;9.90;99.90;;;;;;4983663;28;20458;-55
2021/10/18 05:58:53;;;;;;;16.88;14.02;;;10.00;99.90;;;;;;4983693;28;20205;-55
2021/10/18 06:01:20;;;;;;;20.38;15.32;;;9.90;99.90;;;;;;4983454;28;20243;-53
2021/10/18 06:03:48;;;;;;;18.15;14.35;;;9.80;99.90;;;;;;4980000;28;20259;-54
2021/10/18 06:06:16;;;;;;;20.67;14.20;;;9.80;99.90;;;;;;4983318;28;20286;-54
2021/10/18 06:09:04;;;;;;;18.92;12.93;;;9.80;99.90;;;;;;4974904;28;20200;-55
2021/10/18 06:11:32;;;;;;;16.88;15.07;;;9.90;99.90;;;;;;4983102;28;20250;-53
2021/10/18 06:13:59;;;;;;;20.10;15.65;;;9.90;99.90;;;;;;4975314;28;20222;-53
2021/10/18 06:16:26;;;;;;;17.88;13.70;;;10.10;99.90;;;;;;4982996;28;20249;-54
2021/10/18 06:18:53;;;;;;;18.25;12.35;;;10.00;99.90;;;;;;4980948;28;20275;-56
2021/10/18 06:21:23;;;;;;;14.40;11.23;;;10.10;99.90;;;;;;4983167;28;20200;-54
2021/10/18 06:23:51;;;;;;;17.00;13.60;;;10.10;99.90;;;;;;4982744;28;20204;-55
2021/10/18 06:26:19;;;;;;;20.88;13.30;;;10.20;99.90;;;;;;4983263;28;20231;-51
2021/10/18 06:28:46;;;;;;;13.90;11.80;;;10.20;99.90;;;;;;4982767;28;20203;-55
2021/10/18 06:31:13;;;;;;;17.00;12.07;;;10.40;99.90;;;;;;4983327;28;20483;-54
2021/10/18 06:33:41;;;;;;;19.08;11.98;;;10.40;99.90;;;;;;4981265;28;20235;-55
2021/10/18 06:36:08;;;;;;;15.95;12.35;;;10.40;99.90;;;;;;4981247;28;20549;-55
2021/10/18 06:38:35;;;;;;;16.33;11.80;;;10.50;99.90;;;;;;4980208;28;20199;-56
2021/10/18 06:41:02;;;;;;;14.65;10.35;;;10.60;99.90;;;;;;4980672;28;20268;-54
2021/10/18 06:43:29;;;;;;;13.95;11.35;;;10.60;99.90;;;;;;4982259;28;20479;-57
2021/10/18 06:45:56;;;;;;;16.48;11.85;;;10.70;99.90;;;;;;4982381;28;20224;-55
2021/10/18 06:48:24;;;;;;;16.17;11.60;;;10.70;99.90;;;;;;4982708;28;20203;-53
2021/10/18 06:50:52;;;;;;;12.30;10.75;;;10.70;99.90;;;;;;4982854;28;20399;-55
2021/10/18 06:53:28;;;;;;;11.77;10.48;;;10.70;99.90;;;;;;4982023;28;20209;-52
2021/10/18 06:55:58;;;;;;;17.25;12.73;;;10.50;99.90;;;;;;4979740;28;20283;-54
2021/10/18 06:58:25;;;;;;;16.02;12.35;;;10.40;99.90;;;;;;4978307;28;20508;-54
2021/10/18 07:00:52;;;;;;;18.30;12.00;;;10.50;99.90;;;;;;4978763;28;20202;-55
2021/10/18 07:03:20;;;;;;;17.73;13.30;;;10.60;99.90;;;;;;4979773;28;20202;-57
2021/10/18 07:05:47;;;;;;;13.60;11.20;;;10.60;99.90;;;;;;4976849;28;20426;-52
2021/10/18 07:08:17;;;;;;;15.82;11.85;;;10.60;99.90;;;;;;4981857;28;20200;-57
2021/10/18 07:10:45;;;;;;;14.63;11.20;;;10.70;99.90;;;;;;4982587;28;20207;-55
2021/10/18 07:13:13;;;;;;;12.63;10.70;;;10.60;99.90;;;;;;4983034;28;20200;-54
2021/10/18 07:15:40;;;;;;;16.42;12.55;;;10.70;99.90;;;;;;4976963;28;20402;-55
2021/10/18 07:18:08;;;;;;;17.75;14.23;;;10.70;99.90;;;;;;4982111;28;20204;-56
2021/10/18 07:20:35;;;;;;;16.10;12.65;;;10.90;99.90;;;;;;4981868;28;20209;-53
2021/10/18 07:23:09;;;;;;;17.42;13.30;;;10.90;99.90;;;;;;4981821;28;20564;-52
2021/10/18 07:25:38;;;;;;;15.55;11.80;;;10.80;99.90;;;;;;4986507;28;20268;-55
2021/10/18 07:28:06;;;;;;;14.55;10.80;;;10.80;99.90;;;;;;4981897;28;20213;-55
2021/10/18 07:30:34;;;;;;;18.05;12.88;;;10.90;99.90;;;;;;4975603;28;20205;-52
2021/10/18 07:33:02;;;;;;;13.23;11.75;;;10.90;99.90;;;;;;4980534;28;20215;-55
2021/10/18 07:35:32;;;;;;;16.00;12.00;;;11.10;99.90;;;;;;4976402;28;20595;-53
2021/10/18 07:38:00;;;;;;;17.27;12.48;;;11.40;99.90;;;;;;4979245;28;20201;-55
2021/10/18 07:40:28;;;;;;;11.73;9.52;;;11.60;99.90;;;;;;4981095;28;20200;-56
2021/10/18 07:42:56;;;;;;;13.45;9.50;;;11.50;99.90;;;;;;4981634;28;20228;-56
2021/10/18 07:45:23;;;;;;;10.68;8.52;;;11.70;99.90;;;;;;4980540;28;20443;-55
2021/10/18 07:47:51;;;;;;;14.60;9.50;;;11.80;99.90;;;;;;4981642;28;20220;-57
2021/10/18 07:50:18;;;;;;;11.77;8.93;;;11.90;99.90;;;;;;4981209;28;20578;-55
2021/10/18 07:52:46;;;;;;;15.82;10.80;;;12.00;99.90;;;;;;4981742;28;20216;-55
2021/10/18 07:55:16;;;;;;;12.27;8.85;;;12.00;99.90;;;;;;4981000;28;20229;-55
2021/10/18 07:57:50;;;;;;;10.98;8.10;;;12.00;99.90;;;;;;4981446;28;20201;-53
2021/10/18 08:00:18;;;;;;;10.13;8.52;;;12.00;99.90;;;;;;4980565;28;20225;-57
2021/10/18 08:02:45;;;;;;;12.05;8.60;;;12.00;99.90;;;;;;4981252;28;20209;-55
2021/10/18 08:05:16;;;;;;;9.27;7.78;;;12.20;99.90;;;;;;4981126;28;20205;-55
2021/10/18 08:07:47;;;;;;;9.40;8.40;;;12.10;99.90;;;;;;5019659;23;20562;-50
2021/10/18 08:10:22;;;;;;;9.70;7.72;;;11.90;99.90;;;;;;4993141;28;20206;-49
2021/10/18 08:12:55;;;;;;;13.60;9.35;;;11.80;99.90;;;;;;4999575;28;20429;-46
2021/10/18 08:15:25;;;;;;;12.05;8.55;;;11.90;99.90;;;;;;4992566;28;20231;-49
2021/10/18 08:17:53;;;;;;;17.40;9.43;;;11.60;99.90;;;;;;5007221;28;20258;-46
2021/10/18 08:20:20;;;;;;;17.40;9.20;;;11.70;99.90;;;;;;5001255;28;20216;-50
2021/10/18 08:22:48;;;;;;;10.35;8.38;;;11.50;99.90;;;;;;5007657;28;20212;-48
2021/10/18 08:25:16;;;;;;;14.70;9.52;;;11.70;99.90;;;;;;5001973;28;20258;-46
2021/10/18 08:27:43;;;;;;;14.13;8.50;;;11.80;99.90;;;;;;4996758;28;20248;-48
2021/10/18 08:30:11;;;;;;;9.32;8.43;;;12.00;99.90;;;;;;5001886;28;20213;-46
2021/10/18 08:32:40;;;;;;;10.95;7.38;;;12.10;99.90;;;;;;5002162;28;20480;-44
2021/10/18 08:35:09;;;;;;;8.45;7.50;;;11.90;99.90;;;;;;4995749;28;20220;-45
2021/10/18 08:40:26;;;;;;;8.68;7.70;;;11.90;99.90;;;;;;5002076;28;20436;-49
2021/10/18 08:45:21;;;;;;;9.82;7.60;;;11.90;99.90;;;;;;5004087;28;20244;-46
2021/10/18 08:47:49;;;;;;;7.90;7.10;;;11.70;99.90;;;;;;5000490;28;20223;-44
2021/10/18 08:50:17;;;;;;;13.55;7.53;;;11.60;99.90;;;;;;5000839;28;20251;-45
2021/10/18 08:52:45;;;;;;;8.50;7.60;;;11.60;99.90;;;;;;5006485;28;20208;-46
2021/10/18 08:55:12;;;;;;;8.63;7.30;;;11.80;99.90;;;;;;4997589;28;20228;-47
2021/10/18 08:57:39;;;;;;;8.52;6.28;;;11.80;99.90;;;;;;5001636;28;20373;-49
2021/10/18 09:00:27;;;;;;;6.93;6.25;;;11.90;99.90;;;;;;5010276;28;20369;-45
2021/10/18 09:02:56;;;;;;;7.90;6.15;;;11.90;99.90;;;;;;4998592;28;20231;-48
2021/10/18 09:05:24;;;;;;;7.97;6.68;;;11.90;99.90;;;;;;5008977;28;20543;-49
2021/10/18 09:07:51;;;;;;;9.60;7.10;;;11.80;99.90;;;;;;5004246;28;20232;-45
2021/10/18 09:10:18;;;;;;;9.07;7.68;;;11.80;99.90;;;;;;5006188;28;20381;-46
2021/10/18 09:12:48;;;;;;;10.18;7.25;;;11.90;99.90;;;;;;5000475;28;20658;-45
2021/10/18 09:15:26;;;;;;;9.35;6.80;;;11.80;99.90;;;;;;5004519;28;20598;-45
2021/10/18 09:17:55;;;;;;;6.20;5.60;;;11.80;99.90;;;;;;5002242;28;20221;-47
2021/10/18 09:20:28;;;;;;;10.70;7.30;;;11.90;99.90;;;;;;5003920;28;20247;-48
2021/10/18 09:23:40;;;;;;;16.40;7.22;;;12.00;99.90;;;;;;4999742;28;20208;-45
2021/10/18 09:26:13;;;;;;;9.57;7.00;;;12.30;99.90;;;;;;4999647;28;20531;-50
2021/10/18 09:28:40;;;;;;;9.07;8.18;;;12.40;99.90;;;;;;5005771;28;20406;-45
2021/10/18 09:31:18;;;;;;;10.13;6.22;;;12.70;99.90;;;;;;5003162;28;20243;-52
2021/10/18 09:34:04;;;;;;;7.80;5.53;;;12.90;99.90;;;;;;5007803;28;20497;-45
2021/10/18 09:36:33;;;;;;;9.38;7.38;;;12.90;99.90;;;;;;5003204;28;20344;-46
2021/10/18 09:39:26;;;;;;;12.50;7.28;;;12.90;99.90;;;;;;5001829;28;20208;-46
2021/10/18 09:42:06;;;;;;;7.97;7.38;;;13.00;99.90;;;;;;5005080;28;20201;-47
2021/10/18 10:56:24;;;;;;;5.07;3.88;;;13.70;99.90;;;;;;4999867;28;20230;-47
2021/10/18 10:59:19;;;;;;;5.75;3.88;;;13.50;99.90;;;;;;4998000;28;20244;-46
2021/10/18 11:01:51;;;;;;;5.95;4.10;;;13.40;99.90;;;;;;5001785;28;20198;-50
2021/10/18 11:04:31;;;;;;;6.22;5.15;;;13.40;99.90;;;;;;4995606;28;20260;-45
2021/10/18 11:07:00;;;;;;;5.85;4.90;;;13.90;99.90;;;;;;5002199;28;20229;-51
2021/10/18 11:09:39;;;;;;;11.40;5.15;;;14.00;99.90;;;;;;5007376;28;20260;-45
2021/10/18 11:12:10;;;;;;;8.55;5.63;;;14.20;99.90;;;;;;5001400;28;20269;-48
2021/10/18 11:14:38;;;;;;;8.73;4.57;;;14.20;99.90;;;;;;5006417;28;20731;-44
2021/10/18 11:17:05;;;;;;;5.75;4.80;;;14.00;99.90;;;;;;5001570;28;20264;-49
2021/10/18 11:19:32;;;;;;;7.78;5.43;;;13.90;99.90;;;;;;4997352;28;20197;-49
2021/10/18 11:22:01;;;;;;;4.35;3.95;;;14.00;99.90;;;;;;5008801;28;20197;-45
2021/10/18 11:24:39;;;;;;;5.70;4.68;;;14.00;99.90;;;;;;5001791;28;20228;-48
2021/10/18 11:27:07;;;;;;;6.85;6.25;;;14.10;99.90;;;;;;5006377;28;20217;-48
2021/10/18 11:29:34;;;;;;;5.82;5.10;;;14.20;99.90;;;;;;5001635;28;20197;-44
2021/10/18 11:32:09;;;;;;;4.10;3.20;;;14.50;99.90;;;;;;5004518;28;20198;-51
2021/10/18 11:34:36;;;;;;;5.85;3.97;;;14.60;99.90;;;;;;5006126;28;20256;-48
2021/10/18 11:37:04;;;;;;;5.88;4.07;;;14.50;99.90;;;;;;5003350;28;20221;-46
2021/10/18 11:39:32;;;;;;;6.43;3.90;;;14.80;99.90;;;;;;5000716;28;20252;-45
2021/10/18 11:42:13;;;;;;;4.38;3.92;;;15.00;99.90;;;;;;5002359;28;20198;-46
2021/10/18 11:44:52;;;;;;;4.13;3.70;;;15.10;99.90;;;;;;5004641;28;20236;-44
2021/10/18 11:47:22;;;;;;;9.20;4.95;;;15.10;99.90;;;;;;5001467;28;20217;-51
2021/10/18 11:50:19;;;;;;;7.65;5.57;;;15.50;99.90;;;;;;5001289;28;20213;-45
2021/10/18 11:52:54;;;;;;;7.45;4.85;;;15.30;99.90;;;;;;5005981;28;20382;-46
2021/10/18 11:55:27;;;;;;;5.90;4.97;;;15.40;99.90;;;;;;4995987;28;20244;-49
2021/10/18 11:58:00;;;;;;;4.70;4.30;;;15.60;99.90;;;;;;5000434;28;20217;-49
2021/10/18 12:00:29;;;;;;;7.53;3.75;;;15.60;99.90;;;;;;4995830;28;20204;-47
2021/10/18 12:03:01;;;;;;;6.45;5.13;;;15.50;99.90;;;;;;5005056;28;20205;-48
2021/10/18 12:05:38;;;;;;;4.82;3.70;;;15.70;99.90;;;;;;4995703;28;20232;-49
2021/10/18 12:08:06;;;;;;;5.13;4.60;;;16.00;99.90;;;;;;5004364;28;20202;-43
2021/10/18 12:10:35;;;;;;;4.70;4.30;;;15.80;99.90;;;;;;5000770;28;20209;-45
2021/10/18 12:13:07;;;;;;;7.40;4.93;;;15.90;99.90;;;;;;5004590;28;20201;-47
2021/10/18 12:15:44;;;;;;;7.05;3.95;;;15.80;99.90;;;;;;5007445;28;20232;-51
2021/10/18 12:18:12;;;;;;;5.78;5.32;;;15.80;99.90;;;;;;5002994;28;20212;-47
2021/10/18 12:20:41;;;;;;;3.25;3.05;;;15.90;99.90;;;;;;5001771;28;20197;-46
2021/10/18 12:23:19;;;;;;;3.75;3.40;;;15.90;99.90;;;;;;5000726;28;20198;-44
2021/10/18 12:25:58;;;;;;;7.43;4.25;;;15.90;99.90;;;;;;5000916;28;20440;-46
2021/10/18 12:28:41;;;;;;;6.75;4.20;;;16.20;99.90;;;;;;5002713;28;20202;-44
2021/10/18 12:31:28;;;;;;;3.45;3.15;;;16.30;99.90;;;;;;5002832;28;20216;-48
2021/10/18 12:34:05;;;;;;;4.30;3.90;;;16.50;99.90;;;;;;4997461;28;20202;-48
2021/10/18 12:37:02;;;;;;;4.13;3.65;;;16.40;99.90;;;;;;5007983;28;20226;-47
2021/10/18 12:39:44;;;;;;;5.60;4.78;;;16.20;99.90;;;;;;4998518;28;20294;-49
2021/10/18 12:42:14;;;;;;;4.00;3.70;;;16.00;99.90;;;;;;5000962;28;20199;-46
2021/10/18 12:44:45;;;;;;;3.35;3.05;;;16.00;99.90;;;;;;4997087;28;20197;-45
2021/10/18 12:47:20;;;;;;;5.50;3.30;;;16.00;99.90;;;;;;4999920;28;20213;-45
2021/10/18 12:49:52;;;;;;;6.65;3.92;;;16.30;99.90;;;;;;5002743;28;20462;-48
2021/10/18 12:52:31;;;;;;;8.90;3.70;;;16.30;99.90;;;;;;5000508;28;20208;-46
2021/10/18 12:55:08;;;;;;;2.90;2.70;;;16.30;99.90;;;;;;4997878;28;20230;-46
2021/10/18 12:57:36;;;;;;;4.80;3.50;;;16.50;99.90;;;;;;4999844;28;20457;-47
2021/10/18 13:00:08;;;;;;;5.13;3.40;;;16.40;99.90;;;;;;5008504;28;20491;-45
2021/10/18 13:02:39;;;;;;;3.30;3.10;;;16.30;99.90;;;;;;5005392;28;20416;-46
2021/10/18 13:05:15;;;;;;;4.20;3.50;;;15.90;99.90;;;;;;5002666;28;20290;-46
2021/10/18 13:07:51;;;;;;;6.68;3.90;;;15.70;99.90;;;;;;5002886;28;20236;-50
2021/10/18 13:10:20;;;;;;;3.10;2.90;;;15.60;99.90;;;;;;5011717;28;20274;-51
2021/10/18 13:12:48;;;;;;;4.13;3.72;;;15.50;99.90;;;;;;5009326;28;20215;-45
2021/10/18 13:15:17;;;;;;;4.68;3.00;;;15.50;99.90;;;;;;5007819;28;20229;-49
2021/10/18 13:17:47;;;;;;;6.70;4.43;;;15.50;99.90;;;;;;5000885;28;20247;-52
2021/10/18 13:20:16;;;;;;;5.50;3.58;;;15.60;99.90;;;;;;5009085;28;20214;-46
2021/10/18 13:22:52;;;;;;;3.40;3.10;;;15.50;99.90;;;;;;5007693;28;20209;-45
2021/10/18 13:25:20;;;;;;;7.80;3.60;;;15.40;99.90;;;;;;5004965;28;20210;-47
2021/10/18 13:27:48;;;;;;;4.70;3.58;;;15.30;99.90;;;;;;5003714;28;20223;-47
2021/10/18 13:30:16;;;;;;;5.40;3.60;;;15.50;99.90;;;;;;5003101;28;20552;-44
2021/10/18 13:32:46;;;;;;;4.00;3.60;;;15.50;99.90;;;;;;5003805;28;20196;-45
2021/10/18 13:35:13;;;;;;;4.40;4.00;;;15.50;99.90;;;;;;5001923;28;20486;-46
2021/10/18 13:37:41;;;;;;;4.57;3.92;;;15.90;99.90;;;;;;4993454;28;20219;-47
2021/10/18 13:40:13;;;;;;;7.78;4.13;;;16.10;99.90;;;;;;4989118;28;20432;-44
2021/10/18 13:42:42;;;;;;;3.75;3.55;;;16.10;99.90;;;;;;4987397;28;20246;-44
2021/10/18 13:45:11;;;;;;;4.13;3.75;;;16.30;99.90;;;;;;5002538;28;20204;-43
2021/10/18 13:47:38;;;;;;;7.05;3.63;;;16.20;99.90;;;;;;4998155;28;20264;-47
2021/10/18 13:50:06;;;;;;;7.88;4.43;;;15.90;99.90;;;;;;5000762;28;20211;-53
2021/10/18 13:52:34;;;;;;;4.47;3.55;;;15.80;99.90;;;;;;4999257;28;20198;-47
2021/10/18 13:55:07;;;;;;;4.10;3.70;;;15.80;99.90;;;;;;4998620;28;20206;-48
2021/10/18 13:57:34;;;;;;;3.47;3.03;;;15.70;99.90;;;;;;4992703;28;20219;-47
2021/10/18 14:00:03;;;;;;;4.90;3.40;;;15.60;99.90;;;;;;4986020;28;20495;-46
2021/10/18 14:02:30;;;;;;;8.38;3.70;;;15.60;99.90;;;;;;4991644;28;20201;-47
2021/10/18 14:04:57;;;;;;;4.25;3.85;;;15.50;99.90;;;;;;4998669;28;20202;-45
2021/10/18 14:07:24;;;;;;;6.03;3.42;;;15.40;99.90;;;;;;5036393;23;20233;-49
2021/10/18 14:09:52;;;;;;;4.03;3.70;;;15.40;99.90;;;;;;5022585;28;20500;-50